createdAt,value
2019-02-19T00:02:41.211Z,1.90
2019-02-19T00:07:42.309Z,1.90
2019-02-19T00:12:43.408Z,1.90
2019-02-19T00:17:44.495Z,2.00
2019-02-19T00:22:45.603Z,5.20
2019-02-19T00:27:46.707Z,1.70
2019-02-19T00:32:47.804Z,1.70
2019-02-19T00:37:48.917Z,1.90
2019-02-19T00:42:50.010Z,2.00
2019-02-19T00:47:51.124Z,2.00
2019-02-19T00:52:52.230Z,2.30
2019-02-19T00:57:53.327Z,2.20
2019-02-19T01:02:54.419Z,2.00
2019-02-19T01:07:55.520Z,1.90
2019-02-19T01:12:56.631Z,2.80
2019-02-19T01:17:57.729Z,2.50
2019-02-19T01:22:58.834Z,2.00
2019-02-19T01:27:59.944Z,2.00
2019-02-19T01:33:01.053Z,1.90
2019-02-19T01:38:02.151Z,1.80
2019-02-19T01:43:03.346Z,1.60
2019-02-19T01:48:04.442Z,1.50
2019-02-19T01:53:05.550Z,1.50
2019-02-19T01:58:06.619Z,1.50
2019-02-19T02:03:07.757Z,1.40
2019-02-19T02:08:08.851Z,1.30
2019-02-19T02:13:09.945Z,1.50
2019-02-19T02:18:11.046Z,0.90
2019-02-19T02:23:12.262Z,1.10
2019-02-19T02:28:13.365Z,1.20
2019-02-19T02:33:14.447Z,1.60
2019-02-19T02:38:15.537Z,1.00
2019-02-19T02:43:16.640Z,1.00
2019-02-19T02:48:17.734Z,1.00
2019-02-19T02:53:18.839Z,1.10
2019-02-19T02:58:19.933Z,1.00
2019-02-19T03:03:21.155Z,0.90
2019-02-19T03:08:22.255Z,0.90
2019-02-19T03:13:23.349Z,1.00
2019-02-19T03:18:24.447Z,1.10
2019-02-19T03:23:25.579Z,1.00
2019-02-19T03:28:29.156Z,1.00
2019-02-19T03:33:30.251Z,1.00
2019-02-19T03:38:31.368Z,1.10
2019-02-19T03:43:32.464Z,1.10
2019-02-19T03:48:33.574Z,1.20
2019-02-19T03:53:34.663Z,1.80
2019-02-19T03:58:35.958Z,2.20
2019-02-19T04:03:37.250Z,2.00
2019-02-19T04:08:38.358Z,2.40
2019-02-19T04:13:39.438Z,2.80
2019-02-19T04:18:40.531Z,3.10
2019-02-19T04:23:41.643Z,3.60
2019-02-19T04:28:42.730Z,3.30
2019-02-19T04:33:43.831Z,3.50
2019-02-19T04:38:44.925Z,3.00
2019-02-19T04:43:46.038Z,2.70
2019-02-19T04:48:47.257Z,2.60
2019-02-19T04:53:48.343Z,2.30
2019-02-19T04:58:49.454Z,2.10
2019-02-19T05:03:50.637Z,2.00
2019-02-19T05:08:51.750Z,1.80
2019-02-19T05:13:52.859Z,1.80
2019-02-19T05:18:53.947Z,1.80
2019-02-19T05:23:55.055Z,2.00
2019-02-19T05:28:56.151Z,1.80
2019-02-19T05:33:57.248Z,1.70
2019-02-19T05:38:58.346Z,1.50
2019-02-19T05:43:59.436Z,1.40
2019-02-19T05:49:00.539Z,1.20
2019-02-19T05:54:01.634Z,1.00
2019-02-19T05:59:02.838Z,1.00
2019-02-19T06:04:03.933Z,1.00
2019-02-19T06:09:05.018Z,1.80
2019-02-19T06:14:06.110Z,1.00
2019-02-19T06:19:07.211Z,1.30
2019-02-19T06:24:08.316Z,0.90
2019-02-19T06:29:09.410Z,0.80
2019-02-19T06:34:10.501Z,0.90
2019-02-19T06:39:11.611Z,0.90
2019-02-19T06:44:12.767Z,1.10
2019-02-19T06:49:13.916Z,1.20
2019-02-19T06:54:15.015Z,1.40
2019-02-19T06:59:16.112Z,1.70
2019-02-19T07:04:21.790Z,1.70
2019-02-19T07:09:22.983Z,1.90
2019-02-19T07:14:24.088Z,2.20
2019-02-19T07:19:25.192Z,3.10
2019-02-19T07:24:26.295Z,3.20
2019-02-19T07:29:27.379Z,3.60
2019-02-19T07:34:28.466Z,4.20
2019-02-19T07:39:29.577Z,4.40
2019-02-19T07:44:30.671Z,4.80
2019-02-19T07:49:32.009Z,5.20
2019-02-19T07:54:33.116Z,5.70
2019-02-19T07:59:34.190Z,6.20
2019-02-19T08:04:35.301Z,6.40
2019-02-19T08:09:36.403Z,6.30
2019-02-19T08:14:37.523Z,6.10
2019-02-19T08:19:38.653Z,5.90
2019-02-19T08:24:39.745Z,5.60
2019-02-19T08:29:40.841Z,5.90
2019-02-19T08:34:41.940Z,5.60
2019-02-19T08:39:43.027Z,6.70
2019-02-19T08:44:44.125Z,5.90
2019-02-19T08:49:45.211Z,6.30
2019-02-19T08:54:46.316Z,7.20
2019-02-19T08:59:47.416Z,7.20
2019-02-19T09:04:48.542Z,7.30
2019-02-19T09:09:49.638Z,7.50
2019-02-19T09:14:50.735Z,8.10
2019-02-19T09:19:51.862Z,8.40
2019-02-19T09:24:52.954Z,9.10
2019-02-19T09:29:54.904Z,9.00
2019-02-19T09:34:56.032Z,10.10
2019-02-19T09:39:57.115Z,12.40
2019-02-19T09:44:58.215Z,12.60
2019-02-19T09:49:59.318Z,12.80
2019-02-19T09:55:00.457Z,12.10
2019-02-19T10:00:01.729Z,12.00
2019-02-19T10:05:04.833Z,11.20
2019-02-19T10:10:15.643Z,10.30
2019-02-19T10:15:16.754Z,10.10
2019-02-19T10:20:17.868Z,10.40
2019-02-19T10:25:19.073Z,10.30
2019-02-19T10:30:20.279Z,10.70
2019-02-19T10:35:21.382Z,11.70
2019-02-19T10:40:22.499Z,12.30
2019-02-19T10:45:25.009Z,13.10
2019-02-19T10:50:26.163Z,13.50
2019-02-19T10:55:27.241Z,13.30
2019-02-19T11:00:28.335Z,13.00
2019-02-19T11:05:29.443Z,13.40
2019-02-19T11:10:30.548Z,13.90
2019-02-19T11:15:31.667Z,14.30
2019-02-19T11:20:32.763Z,14.60
2019-02-19T11:25:33.891Z,15.10
2019-02-19T11:30:34.980Z,16.20
2019-02-19T11:35:36.114Z,18.20
2019-02-19T11:40:37.288Z,17.60
2019-02-19T11:45:38.407Z,18.50
2019-02-19T11:50:39.558Z,18.20
2019-02-19T11:55:40.739Z,17.70
2019-02-19T12:00:43.740Z,18.50
2019-02-19T12:05:44.850Z,19.30
2019-02-19T12:10:45.964Z,18.60
2019-02-19T12:15:47.233Z,16.60
2019-02-19T12:20:48.352Z,17.40
2019-02-19T12:25:49.462Z,18.40
2019-02-19T12:30:50.762Z,18.30
2019-02-19T12:35:52.135Z,17.00
2019-02-19T12:40:53.317Z,17.00
2019-02-19T12:45:54.411Z,16.50
2019-02-19T12:50:55.515Z,15.50
2019-02-19T12:55:56.617Z,14.50
2019-02-19T13:00:57.824Z,13.70
2019-02-19T13:05:59.133Z,12.90
2019-02-19T13:11:00.241Z,12.40
2019-02-19T13:16:01.370Z,12.20
2019-02-19T13:21:02.516Z,12.00
2019-02-19T13:26:03.615Z,11.70
2019-02-19T13:31:04.718Z,11.60
2019-02-19T13:36:06.919Z,11.50
2019-02-19T13:41:08.044Z,11.40
2019-02-19T13:46:09.256Z,11.30
2019-02-19T13:51:10.362Z,11.20
2019-02-19T13:56:11.464Z,11.10
2019-02-19T14:01:13.912Z,10.90
2019-02-19T14:06:15.072Z,10.80
2019-02-19T14:11:16.189Z,10.60
2019-02-19T14:16:19.645Z,10.50
2019-02-19T14:21:39.543Z,10.40
2019-02-19T14:26:45.480Z,10.30
2019-02-19T14:32:00.816Z,10.20
2019-02-19T14:37:18.916Z,10.10
2019-02-19T14:42:38.986Z,10.00
2019-02-19T14:47:58.535Z,9.80
2019-02-19T14:53:01.546Z,9.70
2019-02-19T14:58:04.648Z,9.60
2019-02-19T15:03:13.455Z,9.40
2019-02-19T15:08:33.285Z,9.30
2019-02-19T15:13:53.192Z,9.30
2019-02-19T15:19:18.382Z,9.30
2019-02-19T15:24:18.893Z,9.30
2019-02-19T15:29:25.052Z,9.40
2019-02-19T15:34:30.856Z,9.40
2019-02-19T15:39:36.640Z,9.30
2019-02-19T15:44:45.467Z,9.30
2019-02-19T15:50:04.977Z,9.30
2019-02-19T15:55:13.852Z,9.30
2019-02-19T16:00:16.866Z,9.10
2019-02-19T16:05:31.899Z,9.10
2019-02-19T16:10:47.132Z,9.00
2019-02-19T16:16:06.944Z,8.90
2019-02-19T16:21:12.749Z,8.90
2019-02-19T16:26:31.158Z,8.80
2019-02-19T16:31:34.156Z,8.70
2019-02-19T16:36:49.225Z,8.70
2019-02-19T16:42:04.451Z,9.40
2019-02-19T16:47:10.296Z,8.50
2019-02-19T16:52:19.204Z,8.50
2019-02-19T16:57:22.238Z,8.40
2019-02-19T17:02:25.335Z,8.40
2019-02-19T17:07:28.337Z,8.40
2019-02-19T17:12:43.804Z,8.30
2019-02-19T17:17:49.641Z,8.30
2019-02-19T17:23:04.539Z,8.30
2019-02-19T17:28:10.639Z,8.30
2019-02-19T17:33:30.331Z,8.20
2019-02-19T17:38:36.089Z,8.20
2019-02-19T17:43:39.268Z,8.10
2019-02-19T17:48:42.319Z,8.10
2019-02-19T17:53:45.363Z,8.10
2019-02-19T17:58:48.393Z,8.00
2019-02-19T18:03:51.413Z,8.00
2019-02-19T18:09:09.539Z,8.00
2019-02-19T18:14:21.718Z,7.90
2019-02-19T18:19:22.864Z,7.90
2019-02-19T18:24:24.092Z,8.00
2019-02-19T18:29:25.230Z,8.20
2019-02-19T18:34:26.365Z,7.90
2019-02-19T18:39:27.489Z,7.80
2019-02-19T18:44:28.623Z,7.60
2019-02-19T18:49:29.747Z,7.70
2019-02-19T18:54:30.998Z,7.70
2019-02-19T18:59:32.319Z,7.70
2019-02-19T19:04:33.651Z,7.70
2019-02-19T19:09:34.865Z,7.60
2019-02-19T19:14:36.126Z,7.60
2019-02-19T19:19:37.513Z,7.60
2019-02-19T19:24:38.819Z,7.50
2019-02-19T19:29:40.080Z,7.40
2019-02-19T19:34:41.250Z,7.40
2019-02-19T19:39:42.466Z,7.40
2019-02-19T19:44:43.713Z,7.30
2019-02-19T19:49:44.869Z,7.30
2019-02-19T19:54:46.006Z,7.30
2019-02-19T19:59:47.182Z,7.20
2019-02-19T20:04:48.401Z,7.20
2019-02-19T20:09:49.611Z,7.20
2019-02-19T20:14:50.734Z,7.20
2019-02-19T20:19:51.914Z,7.30
2019-02-19T20:24:53.153Z,7.20
2019-02-19T20:29:54.390Z,7.20
2019-02-19T20:34:55.626Z,7.10
2019-02-19T20:39:56.900Z,7.00
2019-02-19T20:44:58.045Z,7.00
2019-02-19T20:49:59.275Z,6.90
2019-02-19T20:55:00.399Z,6.80
2019-02-19T21:00:02.621Z,3.30
2019-02-19T21:05:06.622Z,6.60
2019-02-19T21:10:16.167Z,7.50
2019-02-19T21:15:17.395Z,6.20
2019-02-19T21:20:18.561Z,5.90
2019-02-19T21:25:19.765Z,5.60
2019-02-19T21:30:20.978Z,5.40
2019-02-19T21:35:22.081Z,5.20
2019-02-19T21:40:23.194Z,5.80
2019-02-19T21:45:24.328Z,5.90
2019-02-19T21:50:25.448Z,5.40
2019-02-19T21:55:26.573Z,4.60
2019-02-19T22:00:27.707Z,4.50
2019-02-19T22:05:28.812Z,5.10
2019-02-19T22:10:29.920Z,4.30
2019-02-19T22:15:31.018Z,4.20
2019-02-19T22:20:36.794Z,4.10
2019-02-19T22:25:37.905Z,4.20
2019-02-19T22:30:39.008Z,5.10
2019-02-19T22:35:40.103Z,4.20
2019-02-19T22:40:41.226Z,3.90
2019-02-19T22:45:42.324Z,4.40
2019-02-19T22:50:43.424Z,4.00
2019-02-19T22:55:51.621Z,3.90
2019-02-19T23:00:54.957Z,3.40
2019-02-19T23:05:56.064Z,3.30
2019-02-19T23:10:57.156Z,3.20
2019-02-19T23:15:58.267Z,3.10
2019-02-19T23:20:59.382Z,3.60
2019-02-19T23:26:00.482Z,3.10
2019-02-19T23:31:01.593Z,3.10
2019-02-19T23:36:13.817Z,3.10
2019-02-19T23:41:14.940Z,3.30
2019-02-19T23:46:16.060Z,3.30
2019-02-19T23:51:17.167Z,4.00
2019-02-19T23:56:18.306Z,3.60
